createdAt,value
2022-09-13T00:00:09.864Z,98637.63
2022-09-13T00:02:37.391Z,98626.78
2022-09-13T00:05:05.265Z,98620.63
2022-09-13T00:07:32.819Z,98632.75
2022-09-13T00:10:00.373Z,98635.53
2022-09-13T00:12:27.923Z,98618.53
2022-09-13T00:14:55.425Z,98619.59
2022-09-13T00:17:24.314Z,98607.84
2022-09-13T00:19:51.871Z,98608.22
2022-09-13T00:22:19.590Z,98603.50
2022-09-13T00:24:47.152Z,98608.38
2022-09-13T00:27:14.692Z,98613.22
2022-09-13T00:29:42.275Z,98615.00
2022-09-13T00:32:09.886Z,98615.63
2022-09-13T00:34:38.822Z,98608.81
2022-09-13T00:37:06.388Z,98600.88
2022-09-13T00:39:33.972Z,98605.22
2022-09-13T00:42:01.648Z,98602.81
2022-09-13T00:44:55.004Z,98601.84
2022-09-13T00:47:26.697Z,98576.16
2022-09-13T00:49:58.308Z,98585.44
2022-09-13T00:52:28.512Z,98589.75
2022-09-13T00:55:00.683Z,98594.59
2022-09-13T00:57:28.729Z,98596.19
2022-09-13T01:00:00.174Z,98601.94
2022-09-13T01:02:28.531Z,98608.28
2022-09-13T01:04:57.577Z,98607.56
2022-09-13T01:07:25.214Z,98601.72
2022-09-13T01:09:53.259Z,98609.81
2022-09-13T01:12:28.141Z,98605.06
2022-09-13T01:14:57.034Z,98600.19
2022-09-13T01:17:24.558Z,98603.31
2022-09-13T01:19:52.177Z,98615.06
2022-09-13T01:22:37.166Z,98606.19
2022-09-13T01:25:19.116Z,98610.56
2022-09-13T01:28:04.515Z,98595.53
2022-09-13T01:30:36.757Z,98576.97
2022-09-13T01:33:17.110Z,98563.91
2022-09-13T01:36:24.043Z,98576.91
2022-09-13T01:38:58.040Z,98587.41
2022-09-13T01:41:37.924Z,98595.38
2022-09-13T01:44:13.746Z,98605.56
2022-09-13T01:46:49.646Z,98596.13
2022-09-13T01:49:23.317Z,98613.00
2022-09-13T01:51:56.039Z,98618.53
2022-09-13T01:54:32.140Z,98610.78
2022-09-13T01:57:03.276Z,98600.59
2022-09-13T01:59:38.810Z,98614.41
2022-09-13T02:02:10.390Z,98610.44
2022-09-13T02:04:42.089Z,98604.28
2022-09-13T02:07:13.364Z,98607.69
2022-09-13T02:09:44.020Z,98609.47
2022-09-13T02:12:15.975Z,98615.63
2022-09-13T02:14:45.612Z,98610.66
2022-09-13T02:17:17.415Z,98621.78
2022-09-13T02:19:49.870Z,98615.97
2022-09-13T02:22:21.831Z,98606.84
2022-09-13T02:24:58.318Z,98609.28
2022-09-13T02:27:28.061Z,98612.78
2022-09-13T02:30:00.712Z,98605.78
2022-09-13T02:32:33.214Z,98609.69
2022-09-13T02:35:03.118Z,98617.97
2022-09-13T02:37:32.409Z,98625.94
2022-09-13T02:40:03.996Z,98622.44
2022-09-13T02:42:36.389Z,98618.41
2022-09-13T02:45:04.508Z,98605.34
2022-09-13T02:47:42.284Z,98609.50
2022-09-13T02:50:22.714Z,98612.47
2022-09-13T02:52:55.152Z,98600.16
2022-09-13T02:55:26.677Z,98611.41
2022-09-13T02:58:01.796Z,98605.56
2022-09-13T03:00:29.990Z,98603.00
2022-09-13T03:03:02.370Z,98601.41
2022-09-13T03:05:29.928Z,98595.38
2022-09-13T03:07:57.830Z,98588.94
2022-09-13T03:10:27.544Z,98593.56
2022-09-13T03:13:15.784Z,98599.31
2022-09-13T03:15:54.091Z,98598.16
2022-09-13T03:18:49.677Z,98579.47
2022-09-13T03:21:32.461Z,98577.25
2022-09-13T03:24:09.090Z,98570.31
2022-09-13T03:26:46.347Z,98577.53
2022-09-13T03:29:24.906Z,98568.50
2022-09-13T03:32:00.708Z,98566.16
2022-09-13T03:34:34.794Z,98567.59
2022-09-13T03:37:06.934Z,98561.31
2022-09-13T03:39:40.841Z,98555.38
2022-09-13T03:42:14.179Z,98560.91
2022-09-13T03:44:44.482Z,98558.56
2022-09-13T03:47:12.351Z,98551.03
2022-09-13T03:49:41.606Z,98550.41
2022-09-13T03:52:09.538Z,98550.50
2022-09-13T03:54:38.691Z,98546.03
2022-09-13T03:57:17.148Z,98546.38
2022-09-13T03:59:47.820Z,98544.34
2022-09-13T04:02:16.399Z,98541.16
2022-09-13T04:04:45.981Z,98532.56
2022-09-13T04:07:16.198Z,98535.00
2022-09-13T04:09:43.811Z,98536.91
2022-09-13T04:12:11.442Z,98541.66
2022-09-13T04:14:39.020Z,98546.78
2022-09-13T04:17:07.368Z,98550.28
2022-09-13T04:19:35.076Z,98552.63
2022-09-13T04:22:04.246Z,98547.94
2022-09-13T04:24:32.171Z,98546.13
2022-09-13T04:27:00.182Z,98548.03
2022-09-13T04:29:27.901Z,98547.84
2022-09-13T04:31:56.180Z,98550.28
2022-09-13T04:34:24.400Z,98549.66
2022-09-13T04:36:53.429Z,98544.75
2022-09-13T04:39:23.685Z,98555.59
2022-09-13T04:41:51.931Z,98559.31
2022-09-13T04:44:20.601Z,98552.41
2022-09-13T04:46:49.294Z,98555.69
2022-09-13T04:49:17.353Z,98558.34
2022-09-13T04:51:45.130Z,98554.63
2022-09-13T04:54:15.980Z,98562.94
2022-09-13T04:56:45.440Z,98554.09
2022-09-13T04:59:13.720Z,98544.97
2022-09-13T05:01:41.692Z,98551.91
2022-09-13T05:04:10.848Z,98578.22
2022-09-13T05:06:38.545Z,98569.69
2022-09-13T05:09:06.718Z,98566.53
2022-09-13T05:11:34.494Z,98578.84
2022-09-13T05:14:03.991Z,98573.66
2022-09-13T05:16:33.477Z,98572.16
2022-09-13T05:19:01.623Z,98582.56
2022-09-13T05:21:29.724Z,98590.53
2022-09-13T05:23:57.938Z,98594.75
2022-09-13T05:26:27.037Z,98598.16
2022-09-13T05:28:54.654Z,98606.66
2022-09-13T05:31:25.935Z,98595.81
2022-09-13T05:33:55.208Z,98605.91
2022-09-13T05:36:22.879Z,98606.00
2022-09-13T05:39:01.647Z,98597.72
2022-09-13T05:41:37.889Z,98605.97
2022-09-13T05:44:12.667Z,98608.75
2022-09-13T05:46:42.769Z,98600.06
2022-09-13T05:49:10.311Z,98598.25
2022-09-13T05:51:37.868Z,98598.38
2022-09-13T05:54:05.616Z,98588.59
2022-09-13T05:56:33.410Z,98594.97
2022-09-13T05:59:00.967Z,98595.38
2022-09-13T06:01:29.544Z,98599.94
2022-09-13T06:03:59.559Z,98594.00
2022-09-13T06:06:27.633Z,98587.97
2022-09-13T06:08:56.005Z,98598.25
2022-09-13T06:11:24.314Z,98586.06
2022-09-13T06:13:51.906Z,98588.16
2022-09-13T06:16:19.870Z,98585.94
2022-09-13T06:18:47.578Z,98585.84
2022-09-13T06:21:18.495Z,98586.91
2022-09-13T06:23:46.174Z,98592.09
2022-09-13T06:26:15.258Z,98604.63
2022-09-13T06:28:43.279Z,98603.88
2022-09-13T06:31:12.365Z,98611.41
2022-09-13T06:33:41.271Z,98623.94
2022-09-13T06:36:10.556Z,98611.94
2022-09-13T06:38:40.109Z,98614.78
2022-09-13T06:41:09.605Z,98616.78
2022-09-13T06:43:38.054Z,98617.28
2022-09-13T06:46:07.510Z,98615.47
2022-09-13T06:48:36.256Z,98617.19
2022-09-13T06:51:06.117Z,98623.97
2022-09-13T06:53:35.132Z,98628.84
2022-09-13T06:56:06.594Z,98629.69
2022-09-13T06:58:35.095Z,98637.56
2022-09-13T07:01:11.532Z,98639.03
2022-09-13T07:03:40.528Z,98633.81
2022-09-13T07:06:12.688Z,98637.31
2022-09-13T07:08:41.290Z,98649.31
2022-09-13T07:11:10.541Z,98647.56
2022-09-13T07:13:38.465Z,98647.69
2022-09-13T07:16:07.944Z,98637.50
2022-09-13T07:18:35.622Z,98637.69
2022-09-13T07:21:04.581Z,98614.56
2022-09-13T07:23:32.757Z,98619.31
2022-09-13T07:26:04.450Z,98605.91
2022-09-13T07:28:35.615Z,98591.94
2022-09-13T07:31:08.040Z,98580.91
2022-09-13T07:33:35.800Z,98590.19
2022-09-13T07:36:06.427Z,98584.88
2022-09-13T07:38:35.352Z,98583.94
2022-09-13T07:41:05.091Z,98572.25
2022-09-13T07:43:34.918Z,98574.13
2022-09-13T07:46:03.939Z,98581.75
2022-09-13T07:48:33.909Z,98577.81
2022-09-13T07:51:03.155Z,98588.50
2022-09-13T07:53:30.988Z,98588.59
2022-09-13T07:56:03.324Z,98594.09
2022-09-13T07:58:30.879Z,98599.28
2022-09-13T08:01:06.710Z,98600.00
2022-09-13T08:03:34.871Z,98600.66
2022-09-13T08:06:03.052Z,98598.06
2022-09-13T08:08:31.443Z,98598.91
2022-09-13T08:10:59.281Z,98589.75
2022-09-13T08:13:27.199Z,98593.06
2022-09-13T08:15:54.790Z,98584.00
2022-09-13T08:18:23.731Z,98591.16
2022-09-13T08:20:51.274Z,98595.16
2022-09-13T08:23:18.781Z,98597.94
2022-09-13T08:25:46.361Z,98603.97
2022-09-13T08:28:16.689Z,98613.63
2022-09-13T08:30:44.846Z,98624.41
2022-09-13T08:33:12.870Z,98638.19
2022-09-13T08:35:42.172Z,98642.84
2022-09-13T08:38:09.752Z,98640.16
2022-09-13T08:40:41.882Z,98632.53
2022-09-13T08:43:16.103Z,98638.44
2022-09-13T08:45:43.741Z,98635.78
2022-09-13T08:48:14.925Z,98627.19
2022-09-13T08:50:45.040Z,98630.41
2022-09-13T08:53:19.079Z,98625.97
2022-09-13T08:55:52.302Z,98622.97
2022-09-13T08:58:50.064Z,98612.59
2022-09-13T09:01:25.044Z,98617.31
2022-09-13T09:03:59.325Z,98603.19
2022-09-13T09:06:29.230Z,98603.78
2022-09-13T09:09:01.125Z,98598.47
2022-09-13T09:11:33.156Z,98597.13
2022-09-13T09:14:06.024Z,98602.31
2022-09-13T09:16:37.747Z,98584.03
2022-09-13T09:19:11.895Z,98592.81
2022-09-13T09:21:41.660Z,98596.22
2022-09-13T09:24:13.949Z,98599.56
2022-09-13T09:26:41.517Z,98604.66
2022-09-13T09:29:19.760Z,98602.69
2022-09-13T09:31:59.140Z,98617.50
2022-09-13T09:34:42.451Z,98616.91
2022-09-13T09:37:18.020Z,98630.00
2022-09-13T09:39:45.697Z,98620.41
2022-09-13T09:42:17.144Z,98614.19
2022-09-13T09:44:46.321Z,98614.03
2022-09-13T09:47:17.007Z,98610.88
2022-09-13T09:50:04.815Z,98613.94
2022-09-13T09:52:38.061Z,98623.72
2022-09-13T09:55:16.331Z,98624.25
2022-09-13T09:57:56.312Z,98623.53
2022-09-13T10:00:25.692Z,98621.88
2022-09-13T10:02:55.388Z,98614.19
2022-09-13T10:05:26.186Z,98606.03
2022-09-13T10:07:58.335Z,98608.59
2022-09-13T10:10:36.956Z,98606.03
2022-09-13T10:13:06.500Z,98613.44
2022-09-13T10:15:35.493Z,98611.72
2022-09-13T10:18:26.692Z,98606.19
2022-09-13T10:21:03.724Z,98596.75
2022-09-13T10:23:34.340Z,98602.59
2022-09-13T10:26:05.845Z,98612.19
2022-09-13T10:28:35.369Z,98626.78
2022-09-13T10:31:06.240Z,98624.16
2022-09-13T10:33:35.121Z,98616.22
2022-09-13T10:36:05.615Z,98609.69
2022-09-13T10:38:36.884Z,98604.16
2022-09-13T10:41:06.695Z,98617.69
2022-09-13T10:43:35.102Z,98611.97
2022-09-13T10:46:05.180Z,98607.81
2022-09-13T10:48:45.902Z,98612.13
2022-09-13T10:51:22.686Z,98595.97
2022-09-13T10:53:51.586Z,98581.09
2022-09-13T10:56:24.209Z,98591.66
2022-09-13T10:58:51.798Z,98590.66
2022-09-13T11:01:41.998Z,98602.16
2022-09-13T11:04:39.517Z,98596.47
2022-09-13T11:07:21.267Z,98612.13
2022-09-13T11:09:54.021Z,98610.88
2022-09-13T11:12:26.584Z,98613.88
2022-09-13T11:15:02.879Z,98597.13
2022-09-13T11:17:44.956Z,98606.44
2022-09-13T11:20:22.363Z,98588.63
2022-09-13T11:23:17.167Z,98590.84
2022-09-13T11:25:55.203Z,98580.44
2022-09-13T11:28:27.564Z,98576.19
2022-09-13T11:31:11.459Z,98567.44
2022-09-13T11:33:49.716Z,98569.63
2022-09-13T11:36:41.607Z,98567.59
2022-09-13T11:39:16.779Z,98564.97
2022-09-13T11:41:54.308Z,98560.75
2022-09-13T11:44:55.321Z,98564.41
2022-09-13T11:47:32.487Z,98562.88
2022-09-13T11:50:08.241Z,98561.94
2022-09-13T11:52:48.754Z,98562.78
2022-09-13T11:55:18.784Z,98560.00
2022-09-13T11:57:50.848Z,98562.50
2022-09-13T12:00:22.844Z,98548.88
2022-09-13T12:02:57.747Z,98541.16
2022-09-13T12:05:28.951Z,98547.50
2022-09-13T12:07:59.147Z,98552.13
2022-09-13T12:10:30.001Z,98546.78
2022-09-13T12:13:01.423Z,98549.28
2022-09-13T12:15:35.632Z,98549.72
2022-09-13T12:18:06.909Z,98553.28
2022-09-13T12:20:35.686Z,98553.16
2022-09-13T12:23:06.195Z,98548.50
2022-09-13T12:25:39.364Z,98551.22
2022-09-13T12:28:16.527Z,98540.38
2022-09-13T12:30:48.302Z,98544.59
2022-09-13T12:33:16.784Z,98548.66
2022-09-13T12:35:51.704Z,98532.16
2022-09-13T12:38:37.283Z,98535.81
2022-09-13T12:41:12.924Z,98541.31
2022-09-13T12:43:53.851Z,98536.06
2022-09-13T12:46:57.220Z,98538.03
2022-09-13T12:49:34.643Z,98531.94
2022-09-13T12:52:11.415Z,98530.97
2022-09-13T12:55:45.789Z,98539.56
2022-09-13T12:58:46.587Z,98546.03
2022-09-13T13:01:17.034Z,98547.00
2022-09-13T13:03:50.129Z,98534.78
2022-09-13T13:06:26.671Z,98529.72
2022-09-13T13:08:56.335Z,98523.28
2022-09-13T13:11:25.486Z,98520.56
2022-09-13T13:13:57.918Z,98521.88
2022-09-13T13:16:30.152Z,98523.84
2022-09-13T13:18:58.812Z,98514.38
2022-09-13T13:21:39.061Z,98505.84
2022-09-13T13:24:45.005Z,98508.25
2022-09-13T13:27:38.249Z,98500.34
2022-09-13T13:30:56.261Z,98485.28
2022-09-13T13:33:28.365Z,98482.31
2022-09-13T13:35:56.307Z,98478.34
2022-09-13T13:38:49.417Z,98473.78
2022-09-13T13:41:44.744Z,98479.31
2022-09-13T13:44:45.768Z,98485.31
2022-09-13T13:47:42.446Z,98480.69
2022-09-13T13:50:16.768Z,98486.47
2022-09-13T13:52:55.316Z,98481.25
2022-09-13T13:55:40.659Z,98481.81
2022-09-13T13:58:31.656Z,98474.63
2022-09-13T14:01:01.209Z,98484.19
2022-09-13T14:03:59.128Z,98484.47
2022-09-13T14:06:32.482Z,98479.50
2022-09-13T14:09:06.404Z,98471.63
2022-09-13T14:11:44.197Z,98476.97
2022-09-13T14:14:28.840Z,98476.81
2022-09-13T14:17:05.924Z,98466.13
2022-09-13T14:19:35.591Z,98466.41
2022-09-13T14:22:15.251Z,98461.31
2022-09-13T14:24:46.195Z,98450.34
2022-09-13T14:27:17.498Z,98449.63
2022-09-13T14:29:50.589Z,98454.41
2022-09-13T14:32:21.835Z,98447.53
2022-09-13T14:34:55.623Z,98447.22
2022-09-13T14:37:28.406Z,98433.97
2022-09-13T14:39:57.697Z,98433.72
2022-09-13T14:42:25.874Z,98427.94
2022-09-13T14:44:53.936Z,98426.78
2022-09-13T14:47:27.482Z,98427.09
2022-09-13T14:50:00.584Z,98432.28
2022-09-13T14:52:31.649Z,98432.44
2022-09-13T14:55:04.141Z,98429.78
2022-09-13T14:57:34.682Z,98430.66
2022-09-13T15:00:05.416Z,98428.22
2022-09-13T15:02:36.789Z,98418.81
2022-09-13T15:05:08.959Z,98424.06
2022-09-13T15:07:40.058Z,98425.44
2022-09-13T15:10:11.486Z,98420.63
2022-09-13T15:12:40.197Z,98411.47
2022-09-13T15:15:33.526Z,98406.81
2022-09-13T15:18:03.247Z,98407.03
2022-09-13T15:20:31.902Z,98404.91
2022-09-13T15:23:00.951Z,98400.94
2022-09-13T15:25:31.849Z,98395.00
2022-09-13T15:28:00.105Z,98390.25
2022-09-13T15:30:29.829Z,98395.63
2022-09-13T15:33:24.338Z,98400.47
2022-09-13T15:35:52.610Z,98401.06
2022-09-13T15:38:30.834Z,98404.25
2022-09-13T15:41:01.632Z,98400.28
2022-09-13T15:43:29.356Z,98393.28
2022-09-13T15:45:58.736Z,98398.84
2022-09-13T15:48:29.745Z,98383.69
2022-09-13T15:51:07.492Z,98381.59
2022-09-13T15:53:36.887Z,98386.69
2022-09-13T15:56:05.368Z,98381.34
2022-09-13T15:58:33.526Z,98394.56
2022-09-13T16:01:01.269Z,98395.72
2022-09-13T16:03:29.369Z,98395.84
2022-09-13T16:05:57.413Z,98398.38
2022-09-13T16:08:25.516Z,98402.91
2022-09-13T16:10:54.477Z,98396.84
2022-09-13T16:13:22.022Z,98398.94
2022-09-13T16:15:49.767Z,98397.41
2022-09-13T16:18:17.878Z,98402.19
2022-09-13T16:20:46.087Z,98397.00
2022-09-13T16:23:13.630Z,98398.78
2022-09-13T16:25:41.302Z,98395.22
2022-09-13T16:28:17.273Z,98395.13
2022-09-13T16:30:45.162Z,98383.06
2022-09-13T16:33:12.740Z,98391.50
2022-09-13T16:35:40.394Z,98391.09
2022-09-13T16:38:08.314Z,98385.75
2022-09-13T16:40:36.080Z,98391.66
2022-09-13T16:43:03.833Z,98392.50
2022-09-13T16:45:32.740Z,98396.31
2022-09-13T16:48:00.393Z,98391.41
2022-09-13T16:50:29.379Z,98385.91
2022-09-13T16:53:00.095Z,98389.56
2022-09-13T16:55:27.949Z,98393.22
2022-09-13T16:57:55.665Z,98395.75
2022-09-13T17:00:24.531Z,98396.47
2022-09-13T17:02:53.549Z,98391.41
2022-09-13T17:05:21.284Z,98391.13
2022-09-13T17:07:48.869Z,98389.00
2022-09-13T17:10:16.477Z,98388.31
2022-09-13T17:12:44.036Z,98391.28
2022-09-13T17:15:12.012Z,98392.41
2022-09-13T17:17:39.558Z,98378.88
2022-09-13T17:20:11.930Z,98392.53
2022-09-13T17:22:39.924Z,98395.91
2022-09-13T17:25:08.788Z,98386.63
2022-09-13T17:27:36.463Z,98389.59
2022-09-13T17:30:06.641Z,98390.00
2022-09-13T17:32:34.197Z,98390.72
2022-09-13T17:35:01.731Z,98388.91
2022-09-13T17:37:31.087Z,98389.03
2022-09-13T17:39:58.752Z,98389.75
2022-09-13T17:42:26.400Z,98388.34
2022-09-13T17:44:53.956Z,98380.03
2022-09-13T17:47:21.628Z,98367.38
2022-09-13T17:49:49.149Z,98371.31
2022-09-13T17:52:16.802Z,98350.38
2022-09-13T17:54:46.420Z,98370.19
2022-09-13T17:57:15.562Z,98353.75
2022-09-13T17:59:43.104Z,98353.19
2022-09-13T18:02:11.364Z,98333.50
2022-09-13T18:04:38.963Z,98333.63
2022-09-13T18:07:06.623Z,98349.13
2022-09-13T18:09:34.663Z,98348.97
2022-09-13T18:12:03.698Z,98356.44
2022-09-13T18:14:32.663Z,98357.97
2022-09-13T18:17:00.190Z,98358.97
2022-09-13T18:19:44.747Z,98365.72
2022-09-13T18:22:13.282Z,98343.22
2022-09-13T18:24:40.861Z,98359.09
2022-09-13T18:27:09.924Z,98363.03
2022-09-13T18:29:37.569Z,98359.94
2022-09-13T18:32:05.284Z,98373.44
2022-09-13T18:34:32.833Z,98375.41
2022-09-13T18:37:00.303Z,98383.16
2022-09-13T18:39:27.900Z,98383.84
2022-09-13T18:41:55.430Z,98383.44
2022-09-13T18:44:24.320Z,98395.25
2022-09-13T18:46:53.480Z,98384.97
2022-09-13T18:49:20.970Z,98384.97
2022-09-13T18:51:49.426Z,98381.31
2022-09-13T18:54:18.615Z,98380.47
2022-09-13T18:56:47.237Z,98375.00
2022-09-13T18:59:15.432Z,98372.75
2022-09-13T19:01:45.170Z,98357.78
2022-09-13T19:04:14.602Z,98372.97
2022-09-13T19:06:43.241Z,98372.84
2022-09-13T19:09:11.539Z,98375.66
2022-09-13T19:11:49.266Z,98375.78
2022-09-13T19:14:18.107Z,98376.75
2022-09-13T19:16:47.238Z,98377.34
2022-09-13T19:19:14.883Z,98381.69
2022-09-13T19:21:42.781Z,98388.63
2022-09-13T19:24:17.784Z,98387.78
2022-09-13T19:26:46.488Z,98384.97
2022-09-13T19:29:15.150Z,98385.47
2022-09-13T19:31:43.828Z,98383.09
2022-09-13T19:34:14.653Z,98391.25
2022-09-13T19:36:44.128Z,98392.78
2022-09-13T19:39:11.897Z,98391.53
2022-09-13T19:41:40.077Z,98376.91
2022-09-13T19:44:08.372Z,98387.16
2022-09-13T19:46:38.309Z,98380.56
2022-09-13T19:49:06.699Z,98388.13
2022-09-13T19:51:36.897Z,98387.69
2022-09-13T19:54:05.681Z,98386.16
2022-09-13T19:56:35.303Z,98381.66
2022-09-13T19:59:03.321Z,98387.44
2022-09-13T20:01:32.484Z,98391.66
2022-09-13T20:04:01.719Z,98391.50
2022-09-13T20:06:30.388Z,98388.56
2022-09-13T20:09:00.877Z,98379.13
2022-09-13T20:11:29.063Z,98383.78
2022-09-13T20:13:59.040Z,98388.41
2022-09-13T20:16:29.785Z,98384.63
2022-09-13T20:18:58.106Z,98386.06
2022-09-13T20:23:56.176Z,98378.56
2022-09-13T20:26:26.752Z,98372.25
2022-09-13T20:28:56.380Z,98369.41
2022-09-13T20:31:26.728Z,98371.97
2022-09-13T20:36:21.908Z,98321.91
2022-09-13T20:38:49.928Z,98352.88
2022-09-13T20:41:18.435Z,98355.53
2022-09-13T20:43:48.855Z,98358.91
2022-09-13T20:46:17.663Z,98338.53
2022-09-13T20:48:45.606Z,98358.63
2022-09-13T20:51:15.032Z,98355.94
2022-09-13T20:53:42.789Z,98335.94
2022-09-13T20:56:11.694Z,98351.00
2022-09-13T20:58:39.569Z,98340.44
2022-09-13T21:01:11.197Z,98348.56
2022-09-13T21:03:41.298Z,98355.72
2022-09-13T21:06:10.392Z,98358.84
2022-09-13T21:08:43.104Z,98352.50
2022-09-13T21:11:12.616Z,98342.28
2022-09-13T21:13:42.035Z,98341.59
2022-09-13T21:16:12.754Z,98351.13
2022-09-13T21:18:41.150Z,98345.94
2022-09-13T21:21:09.747Z,98336.66
2022-09-13T21:23:40.232Z,98324.00
2022-09-13T21:26:10.090Z,98325.81
2022-09-13T21:28:38.781Z,98304.19
2022-09-13T21:31:08.563Z,98298.28
2022-09-13T21:33:37.521Z,98301.38
2022-09-13T21:36:06.214Z,98309.94
2022-09-13T21:38:36.253Z,98302.91
2022-09-13T21:41:06.046Z,98283.50
2022-09-13T21:43:34.072Z,98284.34
2022-09-13T21:46:04.397Z,98289.81
2022-09-13T21:48:32.754Z,98276.47
2022-09-13T21:51:06.794Z,98277.00
2022-09-13T21:53:36.482Z,98275.47
2022-09-13T21:56:06.039Z,98270.69
2022-09-13T21:58:33.777Z,98262.13
2022-09-13T22:01:06.105Z,98260.31
2022-09-13T22:03:36.427Z,98261.56
2022-09-13T22:06:06.635Z,98258.06
2022-09-13T22:08:36.566Z,98258.78
2022-09-13T22:11:05.599Z,98253.56
2022-09-13T22:13:34.664Z,98258.63
2022-09-13T22:16:06.889Z,98261.56
2022-09-13T22:18:35.040Z,98264.66
2022-09-13T22:21:08.670Z,98276.88
2022-09-13T22:23:36.527Z,98276.50
2022-09-13T22:26:06.177Z,98267.63
2022-09-13T22:28:33.787Z,98271.50
2022-09-13T22:31:05.426Z,98266.00
2022-09-13T22:33:33.387Z,98254.38
2022-09-13T22:36:01.753Z,98248.06
2022-09-13T22:38:31.356Z,98239.06
2022-09-13T22:41:00.444Z,98236.69
2022-09-13T22:43:28.289Z,98227.69
2022-09-13T22:46:02.711Z,98233.75
2022-09-13T22:48:30.526Z,98236.94
2022-09-13T22:50:58.440Z,98236.00
2022-09-13T22:53:26.692Z,98225.75
2022-09-13T22:55:55.740Z,98225.31
2022-09-13T22:58:23.267Z,98228.13
2022-09-13T23:00:50.894Z,98233.88
2022-09-13T23:03:18.599Z,98233.03
2022-09-13T23:05:52.709Z,98233.81
2022-09-13T23:08:20.323Z,98234.09
2022-09-13T23:10:47.900Z,98247.41
2022-09-13T23:13:16.845Z,98250.38
2022-09-13T23:15:44.522Z,98248.84
2022-09-13T23:18:12.102Z,98247.28
2022-09-13T23:20:40.129Z,98243.78
2022-09-13T23:23:08.475Z,98236.88
2022-09-13T23:25:36.069Z,98225.50
2022-09-13T23:28:03.799Z,98230.94
2022-09-13T23:30:32.676Z,98229.47
2022-09-13T23:33:00.367Z,98246.72
2022-09-13T23:35:27.883Z,98236.84
2022-09-13T23:37:55.433Z,98253.44
2022-09-13T23:40:23.688Z,98252.41
2022-09-13T23:42:51.292Z,98253.66
2022-09-13T23:45:18.948Z,98238.84
2022-09-13T23:47:47.919Z,98223.22
2022-09-13T23:50:15.675Z,98220.97
2022-09-13T23:52:43.322Z,98209.16
2022-09-13T23:55:12.574Z,98220.81
2022-09-13T23:57:40.133Z,98221.41
